sensor_id;sensor_type;location;lat;lon;timestamp;P1;durP1;ratioP1;P2;durP2;ratioP2
69034;SDS011;56091;55.756;37.412;2022-07-23T00:02:31;10.13;;;4.88;;
69034;SDS011;56091;55.756;37.412;2022-07-23T00:07:32;10.50;;;5.00;;
69034;SDS011;56091;55.756;37.412;2022-07-23T00:12:33;10.07;;;5.28;;
69034;SDS011;56091;55.756;37.412;2022-07-23T00:17:35;13.17;;;4.90;;
69034;SDS011;56091;55.756;37.412;2022-07-23T00:22:36;10.10;;;5.00;;
69034;SDS011;56091;55.756;37.412;2022-07-23T00:27:36;10.30;;;5.20;;
69034;SDS011;56091;55.756;37.412;2022-07-23T00:32:47;8.75;;;5.20;;
69034;SDS011;56091;55.756;37.412;2022-07-23T00:37:49;12.77;;;5.43;;
69034;SDS011;56091;55.756;37.412;2022-07-23T00:42:49;10.18;;;5.15;;
69034;SDS011;56091;55.756;37.412;2022-07-23T00:47:51;11.07;;;5.30;;
69034;SDS011;56091;55.756;37.412;2022-07-23T00:52:52;10.98;;;5.32;;
69034;SDS011;56091;55.756;37.412;2022-07-23T00:57:53;11.07;;;5.43;;
69034;SDS011;56091;55.756;37.412;2022-07-23T01:02:55;14.95;;;5.45;;
69034;SDS011;56091;55.756;37.412;2022-07-23T01:07:57;8.77;;;5.20;;
69034;SDS011;56091;55.756;37.412;2022-07-23T01:18:04;8.97;;;5.20;;
69034;SDS011;56091;55.756;37.412;2022-07-23T01:23:06;11.38;;;5.00;;
69034;SDS011;56091;55.756;37.412;2022-07-23T01:28:13;8.93;;;4.90;;
69034;SDS011;56091;55.756;37.412;2022-07-23T01:33:15;11.05;;;5.18;;
69034;SDS011;56091;55.756;37.412;2022-07-23T01:38:19;8.87;;;5.50;;
69034;SDS011;56091;55.756;37.412;2022-07-23T01:43:23;9.10;;;4.78;;
69034;SDS011;56091;55.756;37.412;2022-07-23T01:48:24;9.30;;;5.13;;
69034;SDS011;56091;55.756;37.412;2022-07-23T01:53:47;8.27;;;5.32;;
69034;SDS011;56091;55.756;37.412;2022-07-23T01:58:48;8.90;;;5.33;;
69034;SDS011;56091;55.756;37.412;2022-07-23T02:03:50;10.65;;;5.40;;
69034;SDS011;56091;55.756;37.412;2022-07-23T02:08:51;9.73;;;5.10;;
69034;SDS011;56091;55.756;37.412;2022-07-23T02:13:52;9.97;;;5.53;;
69034;SDS011;56091;55.756;37.412;2022-07-23T02:18:52;9.32;;;5.38;;
69034;SDS011;56091;55.756;37.412;2022-07-23T02:23:53;13.13;;;5.97;;
69034;SDS011;56091;55.756;37.412;2022-07-23T02:28:54;10.35;;;6.00;;
69034;SDS011;56091;55.756;37.412;2022-07-23T02:33:56;10.77;;;5.63;;
69034;SDS011;56091;55.756;37.412;2022-07-23T02:38:58;13.20;;;5.97;;
69034;SDS011;56091;55.756;37.412;2022-07-23T02:44:04;9.67;;;5.67;;
69034;SDS011;56091;55.756;37.412;2022-07-23T02:49:06;12.05;;;6.05;;
69034;SDS011;56091;55.756;37.412;2022-07-23T02:54:07;13.87;;;6.13;;
69034;SDS011;56091;55.756;37.412;2022-07-23T02:59:11;11.43;;;6.30;;
69034;SDS011;56091;55.756;37.412;2022-07-23T03:04:13;9.20;;;6.00;;
69034;SDS011;56091;55.756;37.412;2022-07-23T03:09:16;12.80;;;6.25;;
69034;SDS011;56091;55.756;37.412;2022-07-23T03:14:17;9.47;;;6.10;;
69034;SDS011;56091;55.756;37.412;2022-07-23T03:19:18;9.50;;;6.18;;
69034;SDS011;56091;55.756;37.412;2022-07-23T03:24:18;11.87;;;6.00;;
69034;SDS011;56091;55.756;37.412;2022-07-23T03:29:19;11.55;;;6.05;;
69034;SDS011;56091;55.756;37.412;2022-07-23T03:34:20;10.53;;;6.40;;
69034;SDS011;56091;55.756;37.412;2022-07-23T03:39:21;9.50;;;6.10;;
69034;SDS011;56091;55.756;37.412;2022-07-23T03:44:22;11.13;;;6.10;;
69034;SDS011;56091;55.756;37.412;2022-07-23T03:49:23;10.60;;;6.45;;
69034;SDS011;56091;55.756;37.412;2022-07-23T03:54:24;11.50;;;6.80;;
69034;SDS011;56091;55.756;37.412;2022-07-23T03:59:25;11.05;;;6.63;;
69034;SDS011;56091;55.756;37.412;2022-07-23T04:04:26;14.03;;;7.00;;
69034;SDS011;56091;55.756;37.412;2022-07-23T04:09:27;11.15;;;6.65;;
69034;SDS011;56091;55.756;37.412;2022-07-23T04:14:28;12.70;;;6.60;;
69034;SDS011;56091;55.756;37.412;2022-07-23T04:19:29;12.95;;;6.45;;
69034;SDS011;56091;55.756;37.412;2022-07-23T04:24:37;13.07;;;6.60;;
69034;SDS011;56091;55.756;37.412;2022-07-23T04:29:38;14.00;;;7.38;;
69034;SDS011;56091;55.756;37.412;2022-07-23T04:34:39;11.60;;;6.60;;
69034;SDS011;56091;55.756;37.412;2022-07-23T04:39:41;10.55;;;6.13;;
69034;SDS011;56091;55.756;37.412;2022-07-23T04:44:42;12.33;;;7.17;;
69034;SDS011;56091;55.756;37.412;2022-07-23T04:49:43;11.70;;;6.65;;
69034;SDS011;56091;55.756;37.412;2022-07-23T04:54:47;11.40;;;6.67;;
69034;SDS011;56091;55.756;37.412;2022-07-23T04:59:48;10.07;;;6.43;;
69034;SDS011;56091;55.756;37.412;2022-07-23T05:04:49;12.80;;;6.07;;
69034;SDS011;56091;55.756;37.412;2022-07-23T05:09:50;14.48;;;6.90;;
69034;SDS011;56091;55.756;37.412;2022-07-23T05:14:51;14.80;;;6.80;;
69034;SDS011;56091;55.756;37.412;2022-07-23T05:19:54;11.18;;;7.20;;
69034;SDS011;56091;55.756;37.412;2022-07-23T05:24:56;11.73;;;6.57;;
69034;SDS011;56091;55.756;37.412;2022-07-23T05:29:57;13.23;;;6.80;;
69034;SDS011;56091;55.756;37.412;2022-07-23T05:34:58;11.97;;;6.67;;
69034;SDS011;56091;55.756;37.412;2022-07-23T05:40:03;11.57;;;6.47;;
69034;SDS011;56091;55.756;37.412;2022-07-23T05:45:09;12.90;;;7.03;;
69034;SDS011;56091;55.756;37.412;2022-07-23T05:50:15;11.68;;;6.88;;
69034;SDS011;56091;55.756;37.412;2022-07-23T05:55:22;10.67;;;6.37;;
69034;SDS011;56091;55.756;37.412;2022-07-23T06:00:23;11.43;;;6.30;;
69034;SDS011;56091;55.756;37.412;2022-07-23T06:05:25;10.77;;;6.00;;
69034;SDS011;56091;55.756;37.412;2022-07-23T06:10:28;11.52;;;6.68;;
69034;SDS011;56091;55.756;37.412;2022-07-23T06:15:29;13.17;;;6.50;;
69034;SDS011;56091;55.756;37.412;2022-07-23T06:20:31;11.93;;;6.70;;
69034;SDS011;56091;55.756;37.412;2022-07-23T06:25:33;10.37;;;6.23;;
69034;SDS011;56091;55.756;37.412;2022-07-23T06:30:34;11.73;;;6.43;;
69034;SDS011;56091;55.756;37.412;2022-07-23T06:35:42;15.77;;;6.50;;
69034;SDS011;56091;55.756;37.412;2022-07-23T06:40:43;10.40;;;6.47;;
69034;SDS011;56091;55.756;37.412;2022-07-23T06:45:45;10.90;;;6.50;;
69034;SDS011;56091;55.756;37.412;2022-07-23T06:50:46;12.07;;;6.60;;
69034;SDS011;56091;55.756;37.412;2022-07-23T06:55:47;13.97;;;6.70;;
69034;SDS011;56091;55.756;37.412;2022-07-23T07:00:48;9.82;;;6.68;;
69034;SDS011;56091;55.756;37.412;2022-07-23T07:05:51;13.40;;;7.10;;
69034;SDS011;56091;55.756;37.412;2022-07-23T07:16:05;13.23;;;6.77;;
69034;SDS011;56091;55.756;37.412;2022-07-23T07:21:12;10.18;;;6.57;;
69034;SDS011;56091;55.756;37.412;2022-07-23T07:26:13;13.50;;;6.83;;
69034;SDS011;56091;55.756;37.412;2022-07-23T07:31:13;10.15;;;6.30;;
69034;SDS011;56091;55.756;37.412;2022-07-23T07:36:14;11.60;;;6.60;;
69034;SDS011;56091;55.756;37.412;2022-07-23T07:41:15;11.07;;;6.40;;
69034;SDS011;56091;55.756;37.412;2022-07-23T07:46:19;12.27;;;6.77;;
69034;SDS011;56091;55.756;37.412;2022-07-23T07:51:25;11.98;;;6.90;;
69034;SDS011;56091;55.756;37.412;2022-07-23T07:56:27;12.53;;;6.90;;
69034;SDS011;56091;55.756;37.412;2022-07-23T08:01:28;33.50;;;9.27;;
69034;SDS011;56091;55.756;37.412;2022-07-23T08:06:31;13.20;;;6.53;;
69034;SDS011;56091;55.756;37.412;2022-07-23T08:11:32;12.63;;;7.10;;
69034;SDS011;56091;55.756;37.412;2022-07-23T08:16:33;11.75;;;6.35;;
69034;SDS011;56091;55.756;37.412;2022-07-23T08:21:34;12.53;;;7.23;;
69034;SDS011;56091;55.756;37.412;2022-07-23T08:26:35;12.68;;;7.10;;
69034;SDS011;56091;55.756;37.412;2022-07-23T08:31:36;10.60;;;6.97;;
69034;SDS011;56091;55.756;37.412;2022-07-23T08:36:37;10.70;;;6.65;;
69034;SDS011;56091;55.756;37.412;2022-07-23T08:41:39;10.37;;;7.10;;
69034;SDS011;56091;55.756;37.412;2022-07-23T08:46:43;11.43;;;7.18;;
69034;SDS011;56091;55.756;37.412;2022-07-23T08:51:45;16.37;;;7.07;;
69034;SDS011;56091;55.756;37.412;2022-07-23T08:56:46;11.43;;;7.35;;
69034;SDS011;56091;55.756;37.412;2022-07-23T09:01:48;12.73;;;7.27;;
69034;SDS011;56091;55.756;37.412;2022-07-23T09:06:49;11.10;;;6.85;;
69034;SDS011;56091;55.756;37.412;2022-07-23T09:12:01;11.43;;;7.47;;
69034;SDS011;56091;55.756;37.412;2022-07-23T09:17:16;13.20;;;7.60;;
69034;SDS011;56091;55.756;37.412;2022-07-23T09:27:26;12.18;;;7.82;;
69034;SDS011;56091;55.756;37.412;2022-07-23T09:38:29;12.43;;;8.15;;
69034;SDS011;56091;55.756;37.412;2022-07-23T09:43:29;11.87;;;8.00;;
69034;SDS011;56091;55.756;37.412;2022-07-23T09:48:30;10.85;;;7.80;;
69034;SDS011;56091;55.756;37.412;2022-07-23T09:53:33;10.43;;;7.70;;
69034;SDS011;56091;55.756;37.412;2022-07-23T09:58:47;12.45;;;7.43;;
69034;SDS011;56091;55.756;37.412;2022-07-23T10:04:14;11.50;;;7.10;;
69034;SDS011;56091;55.756;37.412;2022-07-23T10:09:37;9.98;;;6.95;;
69034;SDS011;56091;55.756;37.412;2022-07-23T10:15:18;16.33;;;7.30;;
69034;SDS011;56091;55.756;37.412;2022-07-23T10:20:19;10.82;;;7.40;;
69034;SDS011;56091;55.756;37.412;2022-07-23T10:25:26;10.07;;;7.50;;
69034;SDS011;56091;55.756;37.412;2022-07-23T10:30:36;10.48;;;7.80;;
69034;SDS011;56091;55.756;37.412;2022-07-23T10:35:53;10.60;;;7.53;;
69034;SDS011;56091;55.756;37.412;2022-07-23T10:41:03;12.15;;;7.97;;
69034;SDS011;56091;55.756;37.412;2022-07-23T10:46:21;12.70;;;7.83;;
69034;SDS011;56091;55.756;37.412;2022-07-23T10:51:31;12.82;;;7.72;;
69034;SDS011;56091;55.756;37.412;2022-07-23T11:07:27;10.02;;;7.45;;
69034;SDS011;56091;55.756;37.412;2022-07-23T11:17:29;11.88;;;7.72;;
69034;SDS011;56091;55.756;37.412;2022-07-23T11:27:43;10.93;;;7.43;;
69034;SDS011;56091;55.756;37.412;2022-07-23T11:32:45;10.93;;;7.40;;
69034;SDS011;56091;55.756;37.412;2022-07-23T11:37:46;10.35;;;7.53;;
69034;SDS011;56091;55.756;37.412;2022-07-23T11:42:51;10.93;;;7.50;;
69034;SDS011;56091;55.756;37.412;2022-07-23T11:48:03;10.25;;;7.65;;
69034;SDS011;56091;55.756;37.412;2022-07-23T11:53:07;11.43;;;7.50;;
69034;SDS011;56091;55.756;37.412;2022-07-23T11:58:08;11.65;;;7.95;;
69034;SDS011;56091;55.756;37.412;2022-07-23T12:03:09;10.50;;;7.30;;
69034;SDS011;56091;55.756;37.412;2022-07-23T12:08:10;12.10;;;7.35;;
69034;SDS011;56091;55.756;37.412;2022-07-23T12:13:12;11.67;;;7.30;;
69034;SDS011;56091;55.756;37.412;2022-07-23T12:18:17;12.00;;;7.82;;
69034;SDS011;56091;55.756;37.412;2022-07-23T12:23:24;11.80;;;7.37;;
69034;SDS011;56091;55.756;37.412;2022-07-23T12:28:29;11.00;;;7.13;;
69034;SDS011;56091;55.756;37.412;2022-07-23T12:33:37;10.70;;;7.03;;
69034;SDS011;56091;55.756;37.412;2022-07-23T12:38:44;10.52;;;8.93;;
69034;SDS011;56091;55.756;37.412;2022-07-23T12:43:49;11.47;;;9.73;;
69034;SDS011;56091;55.756;37.412;2022-07-23T12:48:53;13.52;;;10.45;;
69034;SDS011;56091;55.756;37.412;2022-07-23T12:53:57;14.67;;;9.43;;
69034;SDS011;56091;55.756;37.412;2022-07-23T12:59:23;12.57;;;10.10;;
69034;SDS011;56091;55.756;37.412;2022-07-23T13:04:25;9.97;;;7.30;;
69034;SDS011;56091;55.756;37.412;2022-07-23T13:09:27;8.93;;;6.57;;
69034;SDS011;56091;55.756;37.412;2022-07-23T13:14:29;11.57;;;6.87;;
69034;SDS011;56091;55.756;37.412;2022-07-23T13:19:30;11.88;;;8.30;;
69034;SDS011;56091;55.756;37.412;2022-07-23T13:24:33;10.13;;;6.53;;
69034;SDS011;56091;55.756;37.412;2022-07-23T13:29:34;10.65;;;6.70;;
69034;SDS011;56091;55.756;37.412;2022-07-23T13:34:35;15.43;;;10.80;;
69034;SDS011;56091;55.756;37.412;2022-07-23T13:39:41;11.73;;;10.52;;
69034;SDS011;56091;55.756;37.412;2022-07-23T13:44:42;12.33;;;9.87;;
69034;SDS011;56091;55.756;37.412;2022-07-23T13:49:43;11.30;;;10.07;;
69034;SDS011;56091;55.756;37.412;2022-07-23T13:54:44;11.27;;;10.07;;
69034;SDS011;56091;55.756;37.412;2022-07-23T13:59:45;16.73;;;10.43;;
69034;SDS011;56091;55.756;37.412;2022-07-23T14:04:45;15.13;;;10.00;;
69034;SDS011;56091;55.756;37.412;2022-07-23T14:09:46;11.60;;;9.77;;
69034;SDS011;56091;55.756;37.412;2022-07-23T14:14:50;10.10;;;8.87;;
69034;SDS011;56091;55.756;37.412;2022-07-23T14:19:51;15.55;;;9.23;;
69034;SDS011;56091;55.756;37.412;2022-07-23T14:24:52;10.63;;;8.90;;
69034;SDS011;56091;55.756;37.412;2022-07-23T14:29:53;13.60;;;9.63;;
69034;SDS011;56091;55.756;37.412;2022-07-23T14:34:55;11.73;;;9.00;;
69034;SDS011;56091;55.756;37.412;2022-07-23T14:39:55;9.55;;;8.55;;
69034;SDS011;56091;55.756;37.412;2022-07-23T14:44:59;12.53;;;8.97;;
69034;SDS011;56091;55.756;37.412;2022-07-23T14:50:03;10.35;;;8.82;;
69034;SDS011;56091;55.756;37.412;2022-07-23T14:55:06;11.80;;;8.70;;
69034;SDS011;56091;55.756;37.412;2022-07-23T15:00:07;11.77;;;8.97;;
69034;SDS011;56091;55.756;37.412;2022-07-23T15:05:10;10.65;;;8.70;;
69034;SDS011;56091;55.756;37.412;2022-07-23T15:10:14;9.97;;;8.97;;
69034;SDS011;56091;55.756;37.412;2022-07-23T15:15:15;9.75;;;8.75;;
69034;SDS011;56091;55.756;37.412;2022-07-23T15:20:16;9.80;;;8.80;;
69034;SDS011;56091;55.756;37.412;2022-07-23T15:25:17;10.43;;;9.07;;
69034;SDS011;56091;55.756;37.412;2022-07-23T15:30:18;9.13;;;8.23;;
69034;SDS011;56091;55.756;37.412;2022-07-23T15:35:20;10.60;;;8.40;;
69034;SDS011;56091;55.756;37.412;2022-07-23T15:40:21;9.43;;;7.80;;
69034;SDS011;56091;55.756;37.412;2022-07-23T15:45:22;11.10;;;8.00;;
69034;SDS011;56091;55.756;37.412;2022-07-23T15:50:23;8.77;;;6.90;;
69034;SDS011;56091;55.756;37.412;2022-07-23T15:55:24;8.38;;;7.30;;
69034;SDS011;56091;55.756;37.412;2022-07-23T16:00:25;9.50;;;7.57;;
69034;SDS011;56091;55.756;37.412;2022-07-23T16:05:26;9.43;;;5.87;;
69034;SDS011;56091;55.756;37.412;2022-07-23T16:10:27;7.82;;;5.32;;
69034;SDS011;56091;55.756;37.412;2022-07-23T16:15:28;10.77;;;5.90;;
69034;SDS011;56091;55.756;37.412;2022-07-23T16:20:29;8.18;;;5.70;;
69034;SDS011;56091;55.756;37.412;2022-07-23T16:25:30;8.93;;;6.00;;
69034;SDS011;56091;55.756;37.412;2022-07-23T16:30:31;9.65;;;5.65;;
69034;SDS011;56091;55.756;37.412;2022-07-23T16:35:33;8.87;;;5.13;;
69034;SDS011;56091;55.756;37.412;2022-07-23T16:40:37;10.27;;;5.93;;
69034;SDS011;56091;55.756;37.412;2022-07-23T16:45:41;10.30;;;6.13;;
69034;SDS011;56091;55.756;37.412;2022-07-23T16:51:00;10.27;;;6.20;;
69034;SDS011;56091;55.756;37.412;2022-07-23T16:56:02;12.10;;;6.73;;
69034;SDS011;56091;55.756;37.412;2022-07-23T17:01:06;11.17;;;7.17;;
69034;SDS011;56091;55.756;37.412;2022-07-23T17:06:07;10.40;;;6.43;;
69034;SDS011;56091;55.756;37.412;2022-07-23T17:11:08;12.10;;;6.80;;
69034;SDS011;56091;55.756;37.412;2022-07-23T17:16:09;10.27;;;6.60;;
69034;SDS011;56091;55.756;37.412;2022-07-23T17:21:09;13.30;;;6.90;;
69034;SDS011;56091;55.756;37.412;2022-07-23T17:26:10;10.52;;;6.85;;
69034;SDS011;56091;55.756;37.412;2022-07-23T17:31:13;14.20;;;6.93;;
69034;SDS011;56091;55.756;37.412;2022-07-23T17:36:14;11.75;;;6.65;;
69034;SDS011;56091;55.756;37.412;2022-07-23T17:41:18;11.47;;;7.03;;
69034;SDS011;56091;55.756;37.412;2022-07-23T17:46:19;13.13;;;8.07;;
69034;SDS011;56091;55.756;37.412;2022-07-23T17:51:25;13.53;;;7.40;;
69034;SDS011;56091;55.756;37.412;2022-07-23T17:56:26;16.08;;;9.30;;
69034;SDS011;56091;55.756;37.412;2022-07-23T18:01:30;16.40;;;9.37;;
69034;SDS011;56091;55.756;37.412;2022-07-23T18:06:34;13.98;;;8.60;;
69034;SDS011;56091;55.756;37.412;2022-07-23T18:11:35;15.50;;;9.13;;
69034;SDS011;56091;55.756;37.412;2022-07-23T18:16:39;14.13;;;9.40;;
69034;SDS011;56091;55.756;37.412;2022-07-23T18:21:43;12.03;;;7.53;;
69034;SDS011;56091;55.756;37.412;2022-07-23T18:26:44;15.23;;;9.55;;
69034;SDS011;56091;55.756;37.412;2022-07-23T18:31:44;19.20;;;8.87;;
69034;SDS011;56091;55.756;37.412;2022-07-23T18:36:47;17.40;;;9.25;;
69034;SDS011;56091;55.756;37.412;2022-07-23T18:41:48;18.97;;;9.13;;
69034;SDS011;56091;55.756;37.412;2022-07-23T18:46:50;14.80;;;8.98;;
69034;SDS011;56091;55.756;37.412;2022-07-23T18:51:53;21.73;;;10.40;;
69034;SDS011;56091;55.756;37.412;2022-07-23T18:56:55;19.95;;;9.63;;
69034;SDS011;56091;55.756;37.412;2022-07-23T19:01:56;17.00;;;9.43;;
69034;SDS011;56091;55.756;37.412;2022-07-23T19:06:57;14.43;;;9.45;;
69034;SDS011;56091;55.756;37.412;2022-07-23T19:11:58;19.70;;;11.83;;
69034;SDS011;56091;55.756;37.412;2022-07-23T19:16:58;18.92;;;10.20;;
69034;SDS011;56091;55.756;37.412;2022-07-23T19:22:02;16.20;;;9.83;;
69034;SDS011;56091;55.756;37.412;2022-07-23T19:27:06;14.70;;;9.27;;
69034;SDS011;56091;55.756;37.412;2022-07-23T19:32:07;14.17;;;8.90;;
69034;SDS011;56091;55.756;37.412;2022-07-23T19:37:08;14.30;;;8.90;;
69034;SDS011;56091;55.756;37.412;2022-07-23T19:42:12;16.53;;;9.07;;
69034;SDS011;56091;55.756;37.412;2022-07-23T19:47:13;13.07;;;8.35;;
69034;SDS011;56091;55.756;37.412;2022-07-23T19:52:14;13.60;;;8.00;;
69034;SDS011;56091;55.756;37.412;2022-07-23T19:57:15;13.90;;;7.77;;
69034;SDS011;56091;55.756;37.412;2022-07-23T20:02:16;14.33;;;8.73;;
69034;SDS011;56091;55.756;37.412;2022-07-23T20:07:17;12.23;;;8.73;;
69034;SDS011;56091;55.756;37.412;2022-07-23T20:12:20;16.70;;;9.65;;
69034;SDS011;56091;55.756;37.412;2022-07-23T20:17:21;16.63;;;9.73;;
69034;SDS011;56091;55.756;37.412;2022-07-23T20:22:22;15.55;;;9.10;;
69034;SDS011;56091;55.756;37.412;2022-07-23T20:27:23;13.77;;;8.70;;
69034;SDS011;56091;55.756;37.412;2022-07-23T20:32:24;14.98;;;8.98;;
69034;SDS011;56091;55.756;37.412;2022-07-23T20:37:25;15.43;;;8.53;;
69034;SDS011;56091;55.756;37.412;2022-07-23T20:42:26;15.23;;;8.60;;
69034;SDS011;56091;55.756;37.412;2022-07-23T20:47:27;15.83;;;10.03;;
69034;SDS011;56091;55.756;37.412;2022-07-23T20:52:28;15.65;;;9.27;;
69034;SDS011;56091;55.756;37.412;2022-07-23T20:57:29;15.07;;;6.83;;
69034;SDS011;56091;55.756;37.412;2022-07-23T21:02:29;16.17;;;9.63;;
69034;SDS011;56091;55.756;37.412;2022-07-23T21:07:30;13.40;;;7.53;;
69034;SDS011;56091;55.756;37.412;2022-07-23T21:12:34;14.27;;;6.82;;
69034;SDS011;56091;55.756;37.412;2022-07-23T21:17:35;13.73;;;7.83;;
69034;SDS011;56091;55.756;37.412;2022-07-23T21:22:35;11.23;;;8.27;;
69034;SDS011;56091;55.756;37.412;2022-07-23T21:27:36;14.80;;;8.10;;
69034;SDS011;56091;55.756;37.412;2022-07-23T21:32:40;15.30;;;8.02;;
69034;SDS011;56091;55.756;37.412;2022-07-23T21:37:41;15.03;;;8.80;;
69034;SDS011;56091;55.756;37.412;2022-07-23T21:42:41;13.57;;;8.40;;
69034;SDS011;56091;55.756;37.412;2022-07-23T21:47:42;12.93;;;7.87;;
69034;SDS011;56091;55.756;37.412;2022-07-23T21:52:43;11.77;;;7.63;;
69034;SDS011;56091;55.756;37.412;2022-07-23T21:57:44;13.87;;;7.77;;
69034;SDS011;56091;55.756;37.412;2022-07-23T22:02:45;14.68;;;8.32;;
69034;SDS011;56091;55.756;37.412;2022-07-23T22:07:45;12.80;;;7.77;;
69034;SDS011;56091;55.756;37.412;2022-07-23T22:12:47;18.85;;;8.75;;
69034;SDS011;56091;55.756;37.412;2022-07-23T22:17:48;13.37;;;8.43;;
69034;SDS011;56091;55.756;37.412;2022-07-23T22:22:49;16.65;;;9.20;;
69034;SDS011;56091;55.756;37.412;2022-07-23T22:27:50;12.90;;;8.73;;
69034;SDS011;56091;55.756;37.412;2022-07-23T22:32:51;14.38;;;9.38;;
69034;SDS011;56091;55.756;37.412;2022-07-23T22:37:52;14.53;;;8.83;;
69034;SDS011;56091;55.756;37.412;2022-07-23T22:42:53;13.50;;;9.02;;
69034;SDS011;56091;55.756;37.412;2022-07-23T22:47:54;14.50;;;9.13;;
69034;SDS011;56091;55.756;37.412;2022-07-23T22:52:54;17.03;;;9.87;;
69034;SDS011;56091;55.756;37.412;2022-07-23T22:57:55;14.93;;;9.43;;
69034;SDS011;56091;55.756;37.412;2022-07-23T23:02:56;16.77;;;9.83;;
69034;SDS011;56091;55.756;37.412;2022-07-23T23:07:57;17.05;;;9.80;;
69034;SDS011;56091;55.756;37.412;2022-07-23T23:12:58;16.70;;;10.37;;
69034;SDS011;56091;55.756;37.412;2022-07-23T23:17:58;17.65;;;8.95;;
69034;SDS011;56091;55.756;37.412;2022-07-23T23:22:59;18.33;;;9.07;;
69034;SDS011;56091;55.756;37.412;2022-07-23T23:28:05;15.57;;;9.00;;
69034;SDS011;56091;55.756;37.412;2022-07-23T23:33:06;15.63;;;9.10;;
69034;SDS011;56091;55.756;37.412;2022-07-23T23:38:10;13.13;;;9.10;;
69034;SDS011;56091;55.756;37.412;2022-07-23T23:43:11;14.80;;;8.87;;
69034;SDS011;56091;55.756;37.412;2022-07-23T23:48:11;14.10;;;8.70;;
69034;SDS011;56091;55.756;37.412;2022-07-23T23:53:13;15.53;;;8.37;;
69034;SDS011;56091;55.756;37.412;2022-07-23T23:58:14;12.10;;;7.78;;
